sensor_id;sensor_type;location;lat;lon;timestamp;P1;durP1;ratioP1;P2;durP2;ratioP2
4694;SDS011;2361;49.540;8.390;2023-11-18T00:00:10;6.00;;;3.80;;
4694;SDS011;2361;49.540;8.390;2023-11-18T00:02:34;5.50;;;3.90;;
4694;SDS011;2361;49.540;8.390;2023-11-18T00:04:56;5.13;;;3.80;;
4694;SDS011;2361;49.540;8.390;2023-11-18T00:07:18;4.57;;;4.10;;
4694;SDS011;2361;49.540;8.390;2023-11-18T00:09:39;3.78;;;3.47;;
4694;SDS011;2361;49.540;8.390;2023-11-18T00:12:04;3.97;;;3.40;;
4694;SDS011;2361;49.540;8.390;2023-11-18T00:14:26;4.07;;;3.67;;
4694;SDS011;2361;49.540;8.390;2023-11-18T00:16:48;4.57;;;3.72;;
4694;SDS011;2361;49.540;8.390;2023-11-18T00:19:10;6.03;;;4.30;;
4694;SDS011;2361;49.540;8.390;2023-11-18T00:21:32;5.65;;;4.07;;
4694;SDS011;2361;49.540;8.390;2023-11-18T00:23:54;6.40;;;3.90;;
4694;SDS011;2361;49.540;8.390;2023-11-18T00:26:17;4.95;;;4.10;;
4694;SDS011;2361;49.540;8.390;2023-11-18T00:28:39;4.80;;;4.18;;
4694;SDS011;2361;49.540;8.390;2023-11-18T00:31:01;5.13;;;4.30;;
4694;SDS011;2361;49.540;8.390;2023-11-18T00:33:23;4.13;;;3.72;;
4694;SDS011;2361;49.540;8.390;2023-11-18T00:35:45;6.45;;;4.07;;
4694;SDS011;2361;49.540;8.390;2023-11-18T00:38:06;5.32;;;3.92;;
4694;SDS011;2361;49.540;8.390;2023-11-18T00:40:28;4.28;;;3.80;;
4694;SDS011;2361;49.540;8.390;2023-11-18T00:42:51;5.90;;;4.47;;
4694;SDS011;2361;49.540;8.390;2023-11-18T00:45:13;4.90;;;4.20;;
4694;SDS011;2361;49.540;8.390;2023-11-18T00:47:35;8.00;;;5.00;;
4694;SDS011;2361;49.540;8.390;2023-11-18T00:50:00;5.72;;;4.40;;
4694;SDS011;2361;49.540;8.390;2023-11-18T00:52:23;5.40;;;4.70;;
4694;SDS011;2361;49.540;8.390;2023-11-18T00:54:45;6.43;;;4.40;;
4694;SDS011;2361;49.540;8.390;2023-11-18T00:57:07;7.57;;;4.80;;
4694;SDS011;2361;49.540;8.390;2023-11-18T00:59:29;6.18;;;4.90;;
4694;SDS011;2361;49.540;8.390;2023-11-18T01:01:51;5.78;;;4.40;;
4694;SDS011;2361;49.540;8.390;2023-11-18T01:04:13;6.10;;;4.60;;
4694;SDS011;2361;49.540;8.390;2023-11-18T01:06:35;7.33;;;4.90;;
4694;SDS011;2361;49.540;8.390;2023-11-18T01:08:57;6.97;;;4.95;;
4694;SDS011;2361;49.540;8.390;2023-11-18T01:11:19;5.55;;;4.90;;
4694;SDS011;2361;49.540;8.390;2023-11-18T01:13:43;6.68;;;5.00;;
4694;SDS011;2361;49.540;8.390;2023-11-18T01:16:09;5.65;;;4.82;;
4694;SDS011;2361;49.540;8.390;2023-11-18T01:18:32;6.20;;;4.97;;
4694;SDS011;2361;49.540;8.390;2023-11-18T01:20:54;6.15;;;4.60;;
4694;SDS011;2361;49.540;8.390;2023-11-18T01:23:16;6.27;;;4.70;;
4694;SDS011;2361;49.540;8.390;2023-11-18T01:25:38;5.90;;;4.57;;
4694;SDS011;2361;49.540;8.390;2023-11-18T01:28:01;8.40;;;4.82;;
4694;SDS011;2361;49.540;8.390;2023-11-18T01:30:25;5.50;;;4.80;;
4694;SDS011;2361;49.540;8.390;2023-11-18T01:32:47;5.30;;;4.80;;
4694;SDS011;2361;49.540;8.390;2023-11-18T01:35:10;6.13;;;4.60;;
4694;SDS011;2361;49.540;8.390;2023-11-18T01:37:33;6.30;;;4.80;;
4694;SDS011;2361;49.540;8.390;2023-11-18T01:39:57;5.80;;;4.82;;
4694;SDS011;2361;49.540;8.390;2023-11-18T01:42:19;7.78;;;5.32;;
4694;SDS011;2361;49.540;8.390;2023-11-18T01:44:42;8.90;;;5.10;;
4694;SDS011;2361;49.540;8.390;2023-11-18T01:47:04;6.45;;;4.85;;
4694;SDS011;2361;49.540;8.390;2023-11-18T01:49:28;6.65;;;5.00;;
4694;SDS011;2361;49.540;8.390;2023-11-18T01:51:50;6.70;;;5.38;;
4694;SDS011;2361;49.540;8.390;2023-11-18T01:54:12;7.55;;;5.25;;
4694;SDS011;2361;49.540;8.390;2023-11-18T01:56:43;6.72;;;5.10;;
4694;SDS011;2361;49.540;8.390;2023-11-18T01:59:11;6.20;;;4.50;;
4694;SDS011;2361;49.540;8.390;2023-11-18T02:01:39;6.15;;;4.80;;
4694;SDS011;2361;49.540;8.390;2023-11-18T02:04:04;6.95;;;5.20;;
4694;SDS011;2361;49.540;8.390;2023-11-18T02:06:29;7.57;;;5.38;;
4694;SDS011;2361;49.540;8.390;2023-11-18T02:08:51;6.40;;;4.70;;
4694;SDS011;2361;49.540;8.390;2023-11-18T02:13:49;7.22;;;5.15;;
4694;SDS011;2361;49.540;8.390;2023-11-18T02:16:16;6.55;;;4.90;;
4694;SDS011;2361;49.540;8.390;2023-11-18T02:18:39;6.95;;;5.10;;
4694;SDS011;2361;49.540;8.390;2023-11-18T02:21:03;8.07;;;5.38;;
4694;SDS011;2361;49.540;8.390;2023-11-18T02:23:26;6.30;;;4.85;;
4694;SDS011;2361;49.540;8.390;2023-11-18T02:25:48;8.20;;;5.15;;
4694;SDS011;2361;49.540;8.390;2023-11-18T02:28:10;7.63;;;4.82;;
4694;SDS011;2361;49.540;8.390;2023-11-18T02:30:32;7.05;;;5.10;;
4694;SDS011;2361;49.540;8.390;2023-11-18T02:32:55;5.90;;;4.80;;
4694;SDS011;2361;49.540;8.390;2023-11-18T02:35:51;5.95;;;5.00;;
4694;SDS011;2361;49.540;8.390;2023-11-18T02:38:20;7.85;;;5.07;;
4694;SDS011;2361;49.540;8.390;2023-11-18T02:40:53;9.07;;;5.47;;
4694;SDS011;2361;49.540;8.390;2023-11-18T02:43:19;6.55;;;5.20;;
4694;SDS011;2361;49.540;8.390;2023-11-18T02:45:41;6.35;;;4.78;;
4694;SDS011;2361;49.540;8.390;2023-11-18T02:48:05;6.10;;;4.95;;
4694;SDS011;2361;49.540;8.390;2023-11-18T02:50:28;7.68;;;5.00;;
4694;SDS011;2361;49.540;8.390;2023-11-18T02:52:50;7.43;;;5.00;;
4694;SDS011;2361;49.540;8.390;2023-11-18T02:55:12;5.90;;;4.97;;
4694;SDS011;2361;49.540;8.390;2023-11-18T02:57:37;6.22;;;4.90;;
4694;SDS011;2361;49.540;8.390;2023-11-18T03:00:00;7.95;;;5.70;;
4694;SDS011;2361;49.540;8.390;2023-11-18T03:02:21;10.45;;;6.18;;
4694;SDS011;2361;49.540;8.390;2023-11-18T03:04:43;9.20;;;5.70;;
4694;SDS011;2361;49.540;8.390;2023-11-18T03:07:06;7.60;;;5.10;;
4694;SDS011;2361;49.540;8.390;2023-11-18T03:09:29;7.15;;;5.25;;
4694;SDS011;2361;49.540;8.390;2023-11-18T03:11:51;6.68;;;5.00;;
4694;SDS011;2361;49.540;8.390;2023-11-18T03:14:13;5.95;;;4.70;;
4694;SDS011;2361;49.540;8.390;2023-11-18T03:16:36;6.40;;;4.85;;
4694;SDS011;2361;49.540;8.390;2023-11-18T03:19:00;6.95;;;5.10;;
4694;SDS011;2361;49.540;8.390;2023-11-18T03:21:22;7.15;;;5.00;;
4694;SDS011;2361;49.540;8.390;2023-11-18T03:23:45;9.23;;;5.70;;
4694;SDS011;2361;49.540;8.390;2023-11-18T03:26:07;7.20;;;5.15;;
4694;SDS011;2361;49.540;8.390;2023-11-18T03:28:31;9.00;;;5.53;;
4694;SDS011;2361;49.540;8.390;2023-11-18T03:30:53;7.60;;;5.63;;
4694;SDS011;2361;49.540;8.390;2023-11-18T03:33:15;8.90;;;6.05;;
4694;SDS011;2361;49.540;8.390;2023-11-18T03:35:37;7.27;;;5.67;;
4694;SDS011;2361;49.540;8.390;2023-11-18T03:37:59;8.93;;;5.70;;
4694;SDS011;2361;49.540;8.390;2023-11-18T03:40:21;9.00;;;5.85;;
4694;SDS011;2361;49.540;8.390;2023-11-18T03:42:43;9.33;;;5.50;;
4694;SDS011;2361;49.540;8.390;2023-11-18T03:45:08;9.27;;;5.88;;
4694;SDS011;2361;49.540;8.390;2023-11-18T03:47:31;8.45;;;5.97;;
4694;SDS011;2361;49.540;8.390;2023-11-18T03:49:55;7.70;;;5.70;;
4694;SDS011;2361;49.540;8.390;2023-11-18T03:52:17;8.32;;;6.13;;
4694;SDS011;2361;49.540;8.390;2023-11-18T03:54:38;7.70;;;5.88;;
4694;SDS011;2361;49.540;8.390;2023-11-18T03:57:01;8.57;;;6.20;;
4694;SDS011;2361;49.540;8.390;2023-11-18T03:59:22;8.73;;;5.90;;
4694;SDS011;2361;49.540;8.390;2023-11-18T04:01:44;10.45;;;5.80;;
4694;SDS011;2361;49.540;8.390;2023-11-18T04:04:06;8.50;;;6.15;;
4694;SDS011;2361;49.540;8.390;2023-11-18T04:06:28;7.90;;;5.90;;
4694;SDS011;2361;49.540;8.390;2023-11-18T04:08:50;9.10;;;5.80;;
4694;SDS011;2361;49.540;8.390;2023-11-18T04:11:13;8.63;;;5.80;;
4694;SDS011;2361;49.540;8.390;2023-11-18T04:13:35;10.00;;;6.20;;
4694;SDS011;2361;49.540;8.390;2023-11-18T04:15:57;7.35;;;5.82;;
4694;SDS011;2361;49.540;8.390;2023-11-18T04:18:19;10.25;;;6.13;;
4694;SDS011;2361;49.540;8.390;2023-11-18T04:20:42;8.57;;;5.95;;
4694;SDS011;2361;49.540;8.390;2023-11-18T04:23:04;8.27;;;5.97;;
4694;SDS011;2361;49.540;8.390;2023-11-18T04:25:26;8.50;;;6.00;;
4694;SDS011;2361;49.540;8.390;2023-11-18T04:27:48;8.52;;;6.07;;
4694;SDS011;2361;49.540;8.390;2023-11-18T04:30:10;9.70;;;6.80;;
4694;SDS011;2361;49.540;8.390;2023-11-18T04:32:34;11.07;;;6.95;;
4694;SDS011;2361;49.540;8.390;2023-11-18T04:34:56;10.80;;;7.13;;
4694;SDS011;2361;49.540;8.390;2023-11-18T04:37:18;10.25;;;7.20;;
4694;SDS011;2361;49.540;8.390;2023-11-18T04:39:40;11.10;;;7.50;;
4694;SDS011;2361;49.540;8.390;2023-11-18T04:42:01;12.95;;;7.50;;
4694;SDS011;2361;49.540;8.390;2023-11-18T04:44:24;12.00;;;7.60;;
4694;SDS011;2361;49.540;8.390;2023-11-18T04:46:46;12.52;;;8.10;;
4694;SDS011;2361;49.540;8.390;2023-11-18T04:49:08;12.18;;;8.10;;
4694;SDS011;2361;49.540;8.390;2023-11-18T04:51:30;12.77;;;8.45;;
4694;SDS011;2361;49.540;8.390;2023-11-18T04:53:52;12.90;;;8.48;;
4694;SDS011;2361;49.540;8.390;2023-11-18T04:56:13;13.00;;;8.32;;
4694;SDS011;2361;49.540;8.390;2023-11-18T04:58:38;14.45;;;9.43;;
4694;SDS011;2361;49.540;8.390;2023-11-18T05:01:01;13.63;;;8.93;;
4694;SDS011;2361;49.540;8.390;2023-11-18T05:03:22;15.37;;;9.50;;
4694;SDS011;2361;49.540;8.390;2023-11-18T05:05:45;15.52;;;9.82;;
4694;SDS011;2361;49.540;8.390;2023-11-18T05:08:07;17.52;;;10.70;;
4694;SDS011;2361;49.540;8.390;2023-11-18T05:10:39;15.25;;;9.88;;
4694;SDS011;2361;49.540;8.390;2023-11-18T05:13:10;14.38;;;9.10;;
4694;SDS011;2361;49.540;8.390;2023-11-18T05:15:32;13.07;;;8.32;;
4694;SDS011;2361;49.540;8.390;2023-11-18T05:17:54;13.77;;;8.15;;
4694;SDS011;2361;49.540;8.390;2023-11-18T05:20:16;12.77;;;8.32;;
4694;SDS011;2361;49.540;8.390;2023-11-18T05:22:38;12.15;;;7.50;;
4694;SDS011;2361;49.540;8.390;2023-11-18T05:25:00;12.48;;;8.02;;
4694;SDS011;2361;49.540;8.390;2023-11-18T05:27:22;12.68;;;8.10;;
4694;SDS011;2361;49.540;8.390;2023-11-18T05:29:45;14.23;;;8.43;;
4694;SDS011;2361;49.540;8.390;2023-11-18T05:32:09;11.88;;;8.30;;
4694;SDS011;2361;49.540;8.390;2023-11-18T05:34:31;12.85;;;7.88;;
4694;SDS011;2361;49.540;8.390;2023-11-18T05:36:53;12.40;;;7.90;;
4694;SDS011;2361;49.540;8.390;2023-11-18T05:39:15;12.88;;;7.95;;
4694;SDS011;2361;49.540;8.390;2023-11-18T05:41:37;12.75;;;7.88;;
4694;SDS011;2361;49.540;8.390;2023-11-18T05:44:01;12.75;;;8.30;;
4694;SDS011;2361;49.540;8.390;2023-11-18T05:46:23;12.80;;;7.95;;
4694;SDS011;2361;49.540;8.390;2023-11-18T05:48:47;12.10;;;7.63;;
4694;SDS011;2361;49.540;8.390;2023-11-18T05:51:10;13.32;;;7.70;;
4694;SDS011;2361;49.540;8.390;2023-11-18T05:53:33;13.30;;;8.00;;
4694;SDS011;2361;49.540;8.390;2023-11-18T05:55:55;10.02;;;6.97;;
4694;SDS011;2361;49.540;8.390;2023-11-18T05:58:17;12.10;;;7.50;;
4694;SDS011;2361;49.540;8.390;2023-11-18T06:00:39;13.27;;;8.25;;
4694;SDS011;2361;49.540;8.390;2023-11-18T06:03:02;13.30;;;8.00;;
4694;SDS011;2361;49.540;8.390;2023-11-18T06:05:24;12.50;;;7.73;;
4694;SDS011;2361;49.540;8.390;2023-11-18T06:07:47;14.57;;;8.30;;
4694;SDS011;2361;49.540;8.390;2023-11-18T06:10:09;13.20;;;7.93;;
4694;SDS011;2361;49.540;8.390;2023-11-18T06:12:33;13.00;;;7.80;;
4694;SDS011;2361;49.540;8.390;2023-11-18T06:14:57;11.48;;;7.75;;
4694;SDS011;2361;49.540;8.390;2023-11-18T06:17:19;12.63;;;8.00;;
4694;SDS011;2361;49.540;8.390;2023-11-18T06:19:41;12.80;;;8.10;;
4694;SDS011;2361;49.540;8.390;2023-11-18T06:22:03;14.55;;;7.80;;
4694;SDS011;2361;49.540;8.390;2023-11-18T06:24:27;13.77;;;8.05;;
4694;SDS011;2361;49.540;8.390;2023-11-18T06:26:49;11.23;;;7.43;;
4694;SDS011;2361;49.540;8.390;2023-11-18T06:29:11;14.40;;;8.07;;
4694;SDS011;2361;49.540;8.390;2023-11-18T06:31:36;13.68;;;8.20;;
4694;SDS011;2361;49.540;8.390;2023-11-18T06:33:58;11.03;;;7.30;;
4694;SDS011;2361;49.540;8.390;2023-11-18T06:36:20;12.00;;;7.15;;
4694;SDS011;2361;49.540;8.390;2023-11-18T06:38:43;10.23;;;7.00;;
4694;SDS011;2361;49.540;8.390;2023-11-18T06:41:11;9.53;;;6.60;;
4694;SDS011;2361;49.540;8.390;2023-11-18T06:43:35;10.18;;;6.82;;
4694;SDS011;2361;49.540;8.390;2023-11-18T06:46:13;9.88;;;6.47;;
4694;SDS011;2361;49.540;8.390;2023-11-18T06:48:35;9.75;;;6.15;;
4694;SDS011;2361;49.540;8.390;2023-11-18T06:50:57;10.77;;;6.60;;
4694;SDS011;2361;49.540;8.390;2023-11-18T06:53:19;9.80;;;6.00;;
4694;SDS011;2361;49.540;8.390;2023-11-18T06:55:41;10.43;;;6.28;;
4694;SDS011;2361;49.540;8.390;2023-11-18T06:58:03;11.40;;;7.07;;
4694;SDS011;2361;49.540;8.390;2023-11-18T07:00:25;9.98;;;6.63;;
4694;SDS011;2361;49.540;8.390;2023-11-18T07:02:49;11.50;;;6.90;;
4694;SDS011;2361;49.540;8.390;2023-11-18T07:05:11;10.65;;;6.40;;
4694;SDS011;2361;49.540;8.390;2023-11-18T07:07:33;11.07;;;6.65;;
4694;SDS011;2361;49.540;8.390;2023-11-18T07:09:55;8.90;;;6.05;;
4694;SDS011;2361;49.540;8.390;2023-11-18T07:12:17;10.10;;;6.30;;
4694;SDS011;2361;49.540;8.390;2023-11-18T07:14:40;8.90;;;5.70;;
4694;SDS011;2361;49.540;8.390;2023-11-18T07:17:02;10.27;;;6.40;;
4694;SDS011;2361;49.540;8.390;2023-11-18T07:19:26;9.73;;;6.22;;
4694;SDS011;2361;49.540;8.390;2023-11-18T07:21:48;9.23;;;6.35;;
4694;SDS011;2361;49.540;8.390;2023-11-18T07:24:11;10.13;;;6.37;;
4694;SDS011;2361;49.540;8.390;2023-11-18T07:26:33;9.07;;;6.20;;
4694;SDS011;2361;49.540;8.390;2023-11-18T07:28:55;10.10;;;6.43;;
4694;SDS011;2361;49.540;8.390;2023-11-18T07:31:17;11.90;;;6.30;;
4694;SDS011;2361;49.540;8.390;2023-11-18T07:33:40;9.88;;;6.28;;
4694;SDS011;2361;49.540;8.390;2023-11-18T07:36:05;9.35;;;5.65;;
4694;SDS011;2361;49.540;8.390;2023-11-18T07:38:32;8.80;;;5.80;;
4694;SDS011;2361;49.540;8.390;2023-11-18T07:40:55;9.88;;;6.28;;
4694;SDS011;2361;49.540;8.390;2023-11-18T07:43:18;10.13;;;6.70;;
4694;SDS011;2361;49.540;8.390;2023-11-18T07:45:42;10.68;;;6.50;;
4694;SDS011;2361;49.540;8.390;2023-11-18T07:48:05;12.85;;;7.32;;
4694;SDS011;2361;49.540;8.390;2023-11-18T07:50:28;10.20;;;6.70;;
4694;SDS011;2361;49.540;8.390;2023-11-18T07:52:50;12.15;;;6.80;;
4694;SDS011;2361;49.540;8.390;2023-11-18T07:55:12;10.80;;;6.88;;
4694;SDS011;2361;49.540;8.390;2023-11-18T07:57:36;11.10;;;7.05;;
4694;SDS011;2361;49.540;8.390;2023-11-18T07:59:58;10.75;;;7.00;;
4694;SDS011;2361;49.540;8.390;2023-11-18T08:02:26;11.15;;;6.70;;
4694;SDS011;2361;49.540;8.390;2023-11-18T08:04:49;11.18;;;6.40;;
4694;SDS011;2361;49.540;8.390;2023-11-18T08:07:11;11.70;;;6.90;;
4694;SDS011;2361;49.540;8.390;2023-11-18T08:09:35;11.75;;;6.18;;
4694;SDS011;2361;49.540;8.390;2023-11-18T08:12:00;12.05;;;7.00;;
4694;SDS011;2361;49.540;8.390;2023-11-18T08:14:21;12.43;;;7.03;;
4694;SDS011;2361;49.540;8.390;2023-11-18T08:16:43;12.60;;;6.78;;
4694;SDS011;2361;49.540;8.390;2023-11-18T08:19:06;14.93;;;6.97;;
4694;SDS011;2361;49.540;8.390;2023-11-18T08:21:30;13.95;;;7.07;;
4694;SDS011;2361;49.540;8.390;2023-11-18T08:23:52;9.73;;;6.00;;
4694;SDS011;2361;49.540;8.390;2023-11-18T08:26:17;12.35;;;6.80;;
4694;SDS011;2361;49.540;8.390;2023-11-18T08:28:40;10.95;;;6.45;;
4694;SDS011;2361;49.540;8.390;2023-11-18T08:31:02;12.85;;;7.10;;
4694;SDS011;2361;49.540;8.390;2023-11-18T08:33:24;11.35;;;6.80;;
4694;SDS011;2361;49.540;8.390;2023-11-18T08:35:48;13.87;;;7.10;;
4694;SDS011;2361;49.540;8.390;2023-11-18T08:38:10;12.30;;;7.55;;
4694;SDS011;2361;49.540;8.390;2023-11-18T08:40:33;11.20;;;6.45;;
4694;SDS011;2361;49.540;8.390;2023-11-18T08:42:57;10.50;;;6.25;;
4694;SDS011;2361;49.540;8.390;2023-11-18T08:45:20;10.32;;;6.35;;
4694;SDS011;2361;49.540;8.390;2023-11-18T08:47:51;11.40;;;6.50;;
4694;SDS011;2361;49.540;8.390;2023-11-18T08:50:15;10.88;;;6.53;;
4694;SDS011;2361;49.540;8.390;2023-11-18T08:52:38;9.93;;;5.80;;
4694;SDS011;2361;49.540;8.390;2023-11-18T08:55:04;10.82;;;6.07;;
4694;SDS011;2361;49.540;8.390;2023-11-18T08:57:39;9.85;;;5.70;;
4694;SDS011;2361;49.540;8.390;2023-11-18T09:00:14;7.70;;;5.50;;
4694;SDS011;2361;49.540;8.390;2023-11-18T09:02:56;9.23;;;6.17;;
4694;SDS011;2361;49.540;8.390;2023-11-18T09:05:22;7.50;;;5.50;;
4694;SDS011;2361;49.540;8.390;2023-11-18T09:07:44;8.02;;;5.18;;
4694;SDS011;2361;49.540;8.390;2023-11-18T09:10:09;7.50;;;5.00;;
4694;SDS011;2361;49.540;8.390;2023-11-18T09:12:37;8.68;;;5.47;;
4694;SDS011;2361;49.540;8.390;2023-11-18T09:15:02;7.90;;;4.97;;
4694;SDS011;2361;49.540;8.390;2023-11-18T09:17:25;8.95;;;5.50;;
4694;SDS011;2361;49.540;8.390;2023-11-18T09:19:49;8.32;;;5.30;;
4694;SDS011;2361;49.540;8.390;2023-11-18T09:22:14;8.23;;;5.07;;
4694;SDS011;2361;49.540;8.390;2023-11-18T09:24:37;9.07;;;5.45;;
4694;SDS011;2361;49.540;8.390;2023-11-18T09:27:00;5.72;;;4.20;;
4694;SDS011;2361;49.540;8.390;2023-11-18T09:29:21;6.88;;;4.75;;
4694;SDS011;2361;49.540;8.390;2023-11-18T09:31:46;9.60;;;5.70;;
4694;SDS011;2361;49.540;8.390;2023-11-18T09:34:15;9.57;;;5.50;;
4694;SDS011;2361;49.540;8.390;2023-11-18T09:36:38;9.27;;;5.35;;
4694;SDS011;2361;49.540;8.390;2023-11-18T09:39:00;9.77;;;5.20;;
4694;SDS011;2361;49.540;8.390;2023-11-18T09:41:27;7.38;;;5.20;;
4694;SDS011;2361;49.540;8.390;2023-11-18T09:43:50;8.98;;;5.00;;
4694;SDS011;2361;49.540;8.390;2023-11-18T09:46:22;8.13;;;5.00;;
4694;SDS011;2361;49.540;8.390;2023-11-18T09:48:46;7.30;;;4.82;;
4694;SDS011;2361;49.540;8.390;2023-11-18T09:51:22;5.60;;;4.10;;
4694;SDS011;2361;49.540;8.390;2023-11-18T09:53:45;7.90;;;5.18;;
4694;SDS011;2361;49.540;8.390;2023-11-18T09:56:18;7.88;;;4.55;;
4694;SDS011;2361;49.540;8.390;2023-11-18T09:59:11;7.60;;;4.70;;
4694;SDS011;2361;49.540;8.390;2023-11-18T10:01:41;8.45;;;4.78;;
4694;SDS011;2361;49.540;8.390;2023-11-18T10:04:08;6.22;;;4.30;;
4694;SDS011;2361;49.540;8.390;2023-11-18T10:06:34;8.23;;;5.00;;
4694;SDS011;2361;49.540;8.390;2023-11-18T10:08:57;6.20;;;3.92;;
4694;SDS011;2361;49.540;8.390;2023-11-18T10:11:22;5.53;;;3.92;;
4694;SDS011;2361;49.540;8.390;2023-11-18T10:13:43;4.47;;;3.30;;
4694;SDS011;2361;49.540;8.390;2023-11-18T10:16:08;5.85;;;3.65;;
4694;SDS011;2361;49.540;8.390;2023-11-18T10:18:33;5.80;;;4.20;;
4694;SDS011;2361;49.540;8.390;2023-11-18T10:20:58;9.20;;;4.70;;
4694;SDS011;2361;49.540;8.390;2023-11-18T10:23:21;7.50;;;4.97;;
4694;SDS011;2361;49.540;8.390;2023-11-18T10:25:49;7.55;;;5.00;;
4694;SDS011;2361;49.540;8.390;2023-11-18T10:31:04;8.52;;;4.63;;
4694;SDS011;2361;49.540;8.390;2023-11-18T10:33:35;6.10;;;4.40;;
4694;SDS011;2361;49.540;8.390;2023-11-18T10:35:59;5.83;;;4.37;;
4694;SDS011;2361;49.540;8.390;2023-11-18T10:38:24;7.63;;;4.45;;
4694;SDS011;2361;49.540;8.390;2023-11-18T10:40:46;7.83;;;4.40;;
4694;SDS011;2361;49.540;8.390;2023-11-18T10:43:08;6.50;;;4.40;;
4694;SDS011;2361;49.540;8.390;2023-11-18T10:45:31;3.58;;;3.22;;
4694;SDS011;2361;49.540;8.390;2023-11-18T10:47:54;5.32;;;3.80;;
4694;SDS011;2361;49.540;8.390;2023-11-18T10:50:19;5.07;;;3.72;;
4694;SDS011;2361;49.540;8.390;2023-11-18T10:52:44;3.05;;;2.50;;
4694;SDS011;2361;49.540;8.390;2023-11-18T10:55:07;4.80;;;3.95;;
4694;SDS011;2361;49.540;8.390;2023-11-18T10:57:34;6.30;;;3.50;;
4694;SDS011;2361;49.540;8.390;2023-11-18T11:00:03;5.83;;;3.80;;
4694;SDS011;2361;49.540;8.390;2023-11-18T11:02:35;4.45;;;3.67;;
4694;SDS011;2361;49.540;8.390;2023-11-18T11:05:01;5.93;;;4.35;;
4694;SDS011;2361;49.540;8.390;2023-11-18T11:07:23;4.50;;;3.70;;
4694;SDS011;2361;49.540;8.390;2023-11-18T11:09:46;4.60;;;3.78;;
4694;SDS011;2361;49.540;8.390;2023-11-18T11:12:10;4.88;;;3.90;;
4694;SDS011;2361;49.540;8.390;2023-11-18T11:14:37;5.47;;;3.70;;
4694;SDS011;2361;49.540;8.390;2023-11-18T11:17:13;3.75;;;3.45;;
4694;SDS011;2361;49.540;8.390;2023-11-18T11:19:55;3.90;;;3.45;;
4694;SDS011;2361;49.540;8.390;2023-11-18T11:25:33;3.40;;;2.97;;
4694;SDS011;2361;49.540;8.390;2023-11-18T11:28:20;4.28;;;3.45;;
4694;SDS011;2361;49.540;8.390;2023-11-18T11:30:50;5.18;;;3.40;;
4694;SDS011;2361;49.540;8.390;2023-11-18T11:33:42;4.00;;;3.60;;
4694;SDS011;2361;49.540;8.390;2023-11-18T11:36:17;4.55;;;2.20;;
4694;SDS011;2361;49.540;8.390;2023-11-18T11:38:45;4.10;;;3.22;;
4694;SDS011;2361;49.540;8.390;2023-11-18T11:41:08;4.80;;;3.60;;
4694;SDS011;2361;49.540;8.390;2023-11-18T11:43:40;4.97;;;3.40;;
4694;SDS011;2361;49.540;8.390;2023-11-18T11:46:02;4.30;;;3.70;;
4694;SDS011;2361;49.540;8.390;2023-11-18T11:48:31;5.18;;;3.55;;
4694;SDS011;2361;49.540;8.390;2023-11-18T11:51:00;4.15;;;3.40;;
4694;SDS011;2361;49.540;8.390;2023-11-18T11:53:45;5.55;;;3.50;;
4694;SDS011;2361;49.540;8.390;2023-11-18T11:56:14;4.38;;;3.50;;
4694;SDS011;2361;49.540;8.390;2023-11-18T11:58:42;5.38;;;2.95;;
4694;SDS011;2361;49.540;8.390;2023-11-18T12:01:26;10.18;;;3.05;;
4694;SDS011;2361;49.540;8.390;2023-11-18T12:03:58;5.40;;;3.42;;
4694;SDS011;2361;49.540;8.390;2023-11-18T12:06:28;4.28;;;3.10;;
4694;SDS011;2361;49.540;8.390;2023-11-18T12:08:51;4.70;;;3.67;;
4694;SDS011;2361;49.540;8.390;2023-11-18T12:11:14;3.95;;;3.50;;
4694;SDS011;2361;49.540;8.390;2023-11-18T12:13:38;4.30;;;2.67;;
4694;SDS011;2361;49.540;8.390;2023-11-18T12:16:06;1.80;;;1.70;;
4694;SDS011;2361;49.540;8.390;2023-11-18T12:18:31;3.40;;;3.10;;
4694;SDS011;2361;49.540;8.390;2023-11-18T12:20:55;4.15;;;3.20;;
4694;SDS011;2361;49.540;8.390;2023-11-18T12:23:18;3.88;;;3.00;;
4694;SDS011;2361;49.540;8.390;2023-11-18T12:25:44;3.75;;;2.90;;
4694;SDS011;2361;49.540;8.390;2023-11-18T12:28:21;3.33;;;2.83;;
4694;SDS011;2361;49.540;8.390;2023-11-18T12:30:57;2.58;;;2.38;;
4694;SDS011;2361;49.540;8.390;2023-11-18T12:33:26;2.30;;;2.20;;
4694;SDS011;2361;49.540;8.390;2023-11-18T12:42:05;4.97;;;3.20;;
4694;SDS011;2361;49.540;8.390;2023-11-18T12:44:36;3.50;;;2.47;;
4694;SDS011;2361;49.540;8.390;2023-11-18T12:47:35;3.50;;;2.50;;
4694;SDS011;2361;49.540;8.390;2023-11-18T12:50:02;2.72;;;2.30;;
4694;SDS011;2361;49.540;8.390;2023-11-18T12:52:38;3.30;;;3.00;;
4694;SDS011;2361;49.540;8.390;2023-11-18T12:55:00;3.80;;;3.20;;
4694;SDS011;2361;49.540;8.390;2023-11-18T12:57:27;3.40;;;2.28;;
4694;SDS011;2361;49.540;8.390;2023-11-18T12:59:53;3.72;;;2.55;;
4694;SDS011;2361;49.540;8.390;2023-11-18T13:02:15;4.50;;;3.20;;
4694;SDS011;2361;49.540;8.390;2023-11-18T13:04:48;5.97;;;3.20;;
4694;SDS011;2361;49.540;8.390;2023-11-18T13:07:14;3.25;;;2.60;;
4694;SDS011;2361;49.540;8.390;2023-11-18T13:09:39;2.80;;;2.30;;
4694;SDS011;2361;49.540;8.390;2023-11-18T13:12:04;5.13;;;2.63;;
4694;SDS011;2361;49.540;8.390;2023-11-18T13:14:33;3.03;;;2.80;;
4694;SDS011;2361;49.540;8.390;2023-11-18T13:16:57;2.92;;;2.63;;
4694;SDS011;2361;49.540;8.390;2023-11-18T13:19:25;4.07;;;2.90;;
4694;SDS011;2361;49.540;8.390;2023-11-18T13:21:50;3.25;;;2.85;;
4694;SDS011;2361;49.540;8.390;2023-11-18T13:24:13;29.55;;;15.02;;
4694;SDS011;2361;49.540;8.390;2023-11-18T13:26:35;4.38;;;3.40;;
4694;SDS011;2361;49.540;8.390;2023-11-18T13:28:57;3.55;;;3.25;;
4694;SDS011;2361;49.540;8.390;2023-11-18T13:31:20;5.07;;;3.37;;
4694;SDS011;2361;49.540;8.390;2023-11-18T13:33:42;3.33;;;3.03;;
4694;SDS011;2361;49.540;8.390;2023-11-18T13:36:05;2.93;;;2.63;;
4694;SDS011;2361;49.540;8.390;2023-11-18T13:38:31;5.90;;;3.00;;
4694;SDS011;2361;49.540;8.390;2023-11-18T13:40:53;2.50;;;2.30;;
4694;SDS011;2361;49.540;8.390;2023-11-18T13:43:15;2.38;;;2.15;;
4694;SDS011;2361;49.540;8.390;2023-11-18T13:45:43;4.13;;;2.60;;
4694;SDS011;2361;49.540;8.390;2023-11-18T13:48:12;3.20;;;2.90;;
4694;SDS011;2361;49.540;8.390;2023-11-18T13:50:35;3.00;;;2.80;;
4694;SDS011;2361;49.540;8.390;2023-11-18T13:53:00;3.50;;;2.75;;
4694;SDS011;2361;49.540;8.390;2023-11-18T13:55:22;2.22;;;1.90;;
4694;SDS011;2361;49.540;8.390;2023-11-18T13:57:49;3.42;;;2.50;;
4694;SDS011;2361;49.540;8.390;2023-11-18T14:00:11;3.85;;;2.25;;
4694;SDS011;2361;49.540;8.390;2023-11-18T14:02:37;1.98;;;1.88;;
4694;SDS011;2361;49.540;8.390;2023-11-18T14:04:59;3.10;;;2.50;;
4694;SDS011;2361;49.540;8.390;2023-11-18T14:07:22;3.00;;;2.10;;
4694;SDS011;2361;49.540;8.390;2023-11-18T14:09:45;2.00;;;1.70;;
4694;SDS011;2361;49.540;8.390;2023-11-18T14:12:07;4.30;;;2.40;;
4694;SDS011;2361;49.540;8.390;2023-11-18T14:14:30;2.38;;;2.20;;
4694;SDS011;2361;49.540;8.390;2023-11-18T14:16:52;2.20;;;2.10;;
4694;SDS011;2361;49.540;8.390;2023-11-18T14:19:18;2.60;;;2.10;;
4694;SDS011;2361;49.540;8.390;2023-11-18T14:21:41;2.13;;;2.00;;
4694;SDS011;2361;49.540;8.390;2023-11-18T14:24:04;3.90;;;2.10;;
4694;SDS011;2361;49.540;8.390;2023-11-18T14:26:26;1.83;;;1.70;;
4694;SDS011;2361;49.540;8.390;2023-11-18T14:28:48;1.40;;;1.30;;
4694;SDS011;2361;49.540;8.390;2023-11-18T14:31:11;3.38;;;2.40;;
4694;SDS011;2361;49.540;8.390;2023-11-18T14:33:34;3.03;;;1.63;;
4694;SDS011;2361;49.540;8.390;2023-11-18T14:35:56;10.18;;;5.43;;
4694;SDS011;2361;49.540;8.390;2023-11-18T14:38:18;7.85;;;4.55;;
4694;SDS011;2361;49.540;8.390;2023-11-18T14:40:41;3.00;;;2.80;;
4694;SDS011;2361;49.540;8.390;2023-11-18T14:43:03;2.78;;;2.08;;
4694;SDS011;2361;49.540;8.390;2023-11-18T14:45:25;3.90;;;2.70;;
4694;SDS011;2361;49.540;8.390;2023-11-18T14:47:48;2.15;;;2.05;;
4694;SDS011;2361;49.540;8.390;2023-11-18T14:50:11;2.40;;;2.20;;
4694;SDS011;2361;49.540;8.390;2023-11-18T14:52:39;3.20;;;2.30;;
4694;SDS011;2361;49.540;8.390;2023-11-18T14:55:01;2.17;;;2.08;;
4694;SDS011;2361;49.540;8.390;2023-11-18T14:57:28;2.60;;;2.40;;
4694;SDS011;2361;49.540;8.390;2023-11-18T14:59:50;4.00;;;2.50;;
4694;SDS011;2361;49.540;8.390;2023-11-18T15:02:13;2.30;;;2.10;;
4694;SDS011;2361;49.540;8.390;2023-11-18T15:04:36;3.13;;;2.20;;
4694;SDS011;2361;49.540;8.390;2023-11-18T15:06:58;2.67;;;2.47;;
4694;SDS011;2361;49.540;8.390;2023-11-18T15:09:19;2.90;;;2.70;;